sensor_id;sensor_type;location;lat;lon;timestamp;temperature;humidity
25058;DHT22;13057;50.978;11.034;2022-10-31T00:00:08;14.10;99.90
25058;DHT22;13057;50.978;11.034;2022-10-31T00:02:34;14.10;99.90
25058;DHT22;13057;50.978;11.034;2022-10-31T00:05:00;14.10;99.90
25058;DHT22;13057;50.978;11.034;2022-10-31T00:07:25;14.10;99.90
25058;DHT22;13057;50.978;11.034;2022-10-31T00:09:51;14.10;99.90
25058;DHT22;13057;50.978;11.034;2022-10-31T00:12:17;14.20;99.90
25058;DHT22;13057;50.978;11.034;2022-10-31T00:14:43;14.10;99.90
25058;DHT22;13057;50.978;11.034;2022-10-31T00:17:09;14.10;99.90
25058;DHT22;13057;50.978;11.034;2022-10-31T00:19:35;14.10;99.90
25058;DHT22;13057;50.978;11.034;2022-10-31T00:22:00;14.00;99.90
25058;DHT22;13057;50.978;11.034;2022-10-31T00:24:26;14.00;99.90
25058;DHT22;13057;50.978;11.034;2022-10-31T00:26:52;14.00;99.90
25058;DHT22;13057;50.978;11.034;2022-10-31T00:29:18;14.00;99.90
25058;DHT22;13057;50.978;11.034;2022-10-31T00:31:44;14.00;99.90
25058;DHT22;13057;50.978;11.034;2022-10-31T00:34:09;13.90;99.90
25058;DHT22;13057;50.978;11.034;2022-10-31T00:36:35;14.00;99.90
25058;DHT22;13057;50.978;11.034;2022-10-31T00:39:01;14.00;99.90
25058;DHT22;13057;50.978;11.034;2022-10-31T00:41:27;13.90;99.90
25058;DHT22;13057;50.978;11.034;2022-10-31T00:43:53;13.90;99.90
25058;DHT22;13057;50.978;11.034;2022-10-31T00:46:18;13.80;99.90
25058;DHT22;13057;50.978;11.034;2022-10-31T00:48:44;13.80;99.90
25058;DHT22;13057;50.978;11.034;2022-10-31T00:51:10;13.80;99.90
25058;DHT22;13057;50.978;11.034;2022-10-31T00:53:36;13.80;99.90
25058;DHT22;13057;50.978;11.034;2022-10-31T00:56:03;13.70;99.90
25058;DHT22;13057;50.978;11.034;2022-10-31T00:58:29;13.70;99.90
25058;DHT22;13057;50.978;11.034;2022-10-31T01:00:55;13.60;99.90
25058;DHT22;13057;50.978;11.034;2022-10-31T01:03:22;13.70;99.90
25058;DHT22;13057;50.978;11.034;2022-10-31T01:05:57;13.60;99.90
25058;DHT22;13057;50.978;11.034;2022-10-31T01:08:23;13.60;99.90
25058;DHT22;13057;50.978;11.034;2022-10-31T01:10:59;13.60;99.90
25058;DHT22;13057;50.978;11.034;2022-10-31T01:13:25;13.60;99.90
25058;DHT22;13057;50.978;11.034;2022-10-31T01:15:55;13.60;99.90
25058;DHT22;13057;50.978;11.034;2022-10-31T01:18:21;13.50;99.90
25058;DHT22;13057;50.978;11.034;2022-10-31T01:20:47;13.50;99.90
25058;DHT22;13057;50.978;11.034;2022-10-31T01:23:13;13.50;99.90
25058;DHT22;13057;50.978;11.034;2022-10-31T01:25:38;13.50;99.90
25058;DHT22;13057;50.978;11.034;2022-10-31T01:28:04;13.50;99.90
25058;DHT22;13057;50.978;11.034;2022-10-31T01:30:30;13.50;99.90
25058;DHT22;13057;50.978;11.034;2022-10-31T01:32:57;13.40;99.90
25058;DHT22;13057;50.978;11.034;2022-10-31T01:35:22;13.40;99.90
25058;DHT22;13057;50.978;11.034;2022-10-31T01:37:48;13.40;99.90
25058;DHT22;13057;50.978;11.034;2022-10-31T01:40:14;13.40;99.90
25058;DHT22;13057;50.978;11.034;2022-10-31T01:42:40;13.30;99.90
25058;DHT22;13057;50.978;11.034;2022-10-31T01:45:10;13.20;99.90
25058;DHT22;13057;50.978;11.034;2022-10-31T01:47:41;13.20;99.90
25058;DHT22;13057;50.978;11.034;2022-10-31T01:50:13;13.20;99.90
25058;DHT22;13057;50.978;11.034;2022-10-31T01:52:43;13.20;99.90
25058;DHT22;13057;50.978;11.034;2022-10-31T01:55:22;13.30;99.90
25058;DHT22;13057;50.978;11.034;2022-10-31T01:57:51;13.30;99.90
25058;DHT22;13057;50.978;11.034;2022-10-31T02:00:20;13.30;99.90
25058;DHT22;13057;50.978;11.034;2022-10-31T02:02:48;13.30;99.90
25058;DHT22;13057;50.978;11.034;2022-10-31T02:05:20;13.40;99.90
25058;DHT22;13057;50.978;11.034;2022-10-31T02:08:03;13.40;99.90
25058;DHT22;13057;50.978;11.034;2022-10-31T02:10:32;13.40;99.90
25058;DHT22;13057;50.978;11.034;2022-10-31T02:13:00;13.30;99.90
25058;DHT22;13057;50.978;11.034;2022-10-31T02:15:29;13.30;99.90
25058;DHT22;13057;50.978;11.034;2022-10-31T02:17:55;13.20;99.90
25058;DHT22;13057;50.978;11.034;2022-10-31T02:20:24;13.20;99.90
25058;DHT22;13057;50.978;11.034;2022-10-31T02:23:11;13.20;99.90
25058;DHT22;13057;50.978;11.034;2022-10-31T02:26:07;13.10;99.90
25058;DHT22;13057;50.978;11.034;2022-10-31T02:31:42;13.00;99.90
25058;DHT22;13057;50.978;11.034;2022-10-31T02:34:19;13.00;99.90
25058;DHT22;13057;50.978;11.034;2022-10-31T02:37:01;13.00;99.90
25058;DHT22;13057;50.978;11.034;2022-10-31T02:39:37;13.00;99.90
25058;DHT22;13057;50.978;11.034;2022-10-31T02:42:17;13.00;99.90
25058;DHT22;13057;50.978;11.034;2022-10-31T02:44:58;13.00;99.90
25058;DHT22;13057;50.978;11.034;2022-10-31T02:47:28;12.90;99.90
25058;DHT22;13057;50.978;11.034;2022-10-31T02:49:59;12.90;99.90
25058;DHT22;13057;50.978;11.034;2022-10-31T02:52:28;12.90;99.90
25058;DHT22;13057;50.978;11.034;2022-10-31T02:54:54;12.80;99.90
25058;DHT22;13057;50.978;11.034;2022-10-31T02:57:24;12.80;99.90
25058;DHT22;13057;50.978;11.034;2022-10-31T02:59:54;12.80;99.90
25058;DHT22;13057;50.978;11.034;2022-10-31T03:02:39;12.80;99.90
25058;DHT22;13057;50.978;11.034;2022-10-31T03:05:23;12.80;99.90
25058;DHT22;13057;50.978;11.034;2022-10-31T03:08:06;12.70;99.90
25058;DHT22;13057;50.978;11.034;2022-10-31T03:10:43;12.80;99.90
25058;DHT22;13057;50.978;11.034;2022-10-31T03:13:34;12.70;99.90
25058;DHT22;13057;50.978;11.034;2022-10-31T03:16:09;12.70;99.90
25058;DHT22;13057;50.978;11.034;2022-10-31T03:18:40;12.70;99.90
25058;DHT22;13057;50.978;11.034;2022-10-31T03:21:13;12.70;99.90
25058;DHT22;13057;50.978;11.034;2022-10-31T03:23:42;12.80;99.90
25058;DHT22;13057;50.978;11.034;2022-10-31T03:26:12;12.80;99.90
25058;DHT22;13057;50.978;11.034;2022-10-31T03:28:47;12.80;99.90
25058;DHT22;13057;50.978;11.034;2022-10-31T03:31:18;12.80;99.90
25058;DHT22;13057;50.978;11.034;2022-10-31T03:33:46;12.70;99.90
25058;DHT22;13057;50.978;11.034;2022-10-31T03:36:15;12.70;99.90
25058;DHT22;13057;50.978;11.034;2022-10-31T03:38:44;12.70;99.90
25058;DHT22;13057;50.978;11.034;2022-10-31T03:41:15;12.70;99.90
25058;DHT22;13057;50.978;11.034;2022-10-31T03:43:50;12.70;99.90
25058;DHT22;13057;50.978;11.034;2022-10-31T03:46:18;12.70;99.90
25058;DHT22;13057;50.978;11.034;2022-10-31T03:48:44;12.70;99.90
25058;DHT22;13057;50.978;11.034;2022-10-31T03:51:23;12.60;99.90
25058;DHT22;13057;50.978;11.034;2022-10-31T03:53:56;12.60;99.90
25058;DHT22;13057;50.978;11.034;2022-10-31T03:56:36;12.60;99.90
25058;DHT22;13057;50.978;11.034;2022-10-31T03:59:11;12.60;99.90
25058;DHT22;13057;50.978;11.034;2022-10-31T04:01:42;12.60;99.90
25058;DHT22;13057;50.978;11.034;2022-10-31T04:04:10;12.70;99.90
25058;DHT22;13057;50.978;11.034;2022-10-31T04:06:38;12.60;99.90
25058;DHT22;13057;50.978;11.034;2022-10-31T04:09:06;12.60;99.90
25058;DHT22;13057;50.978;11.034;2022-10-31T04:11:37;12.60;99.90
25058;DHT22;13057;50.978;11.034;2022-10-31T04:14:04;12.60;99.90
25058;DHT22;13057;50.978;11.034;2022-10-31T04:16:31;12.60;99.90
25058;DHT22;13057;50.978;11.034;2022-10-31T04:18:57;12.60;99.90
25058;DHT22;13057;50.978;11.034;2022-10-31T04:21:27;12.60;99.90
25058;DHT22;13057;50.978;11.034;2022-10-31T04:23:55;12.60;99.90
25058;DHT22;13057;50.978;11.034;2022-10-31T04:26:21;12.60;99.90
25058;DHT22;13057;50.978;11.034;2022-10-31T04:28:46;12.60;99.90
25058;DHT22;13057;50.978;11.034;2022-10-31T04:31:12;12.60;99.90
25058;DHT22;13057;50.978;11.034;2022-10-31T04:33:38;12.60;99.90
25058;DHT22;13057;50.978;11.034;2022-10-31T04:36:04;12.50;99.90
25058;DHT22;13057;50.978;11.034;2022-10-31T04:38:30;12.50;99.90
25058;DHT22;13057;50.978;11.034;2022-10-31T04:40:56;12.50;99.90
25058;DHT22;13057;50.978;11.034;2022-10-31T04:43:22;12.50;99.90
25058;DHT22;13057;50.978;11.034;2022-10-31T04:45:48;12.50;99.90
25058;DHT22;13057;50.978;11.034;2022-10-31T04:48:14;12.40;99.90
25058;DHT22;13057;50.978;11.034;2022-10-31T04:50:40;12.40;99.90
25058;DHT22;13057;50.978;11.034;2022-10-31T04:53:06;12.30;99.90
25058;DHT22;13057;50.978;11.034;2022-10-31T04:55:32;12.20;99.90
25058;DHT22;13057;50.978;11.034;2022-10-31T04:57:58;12.20;99.90
25058;DHT22;13057;50.978;11.034;2022-10-31T05:00:24;12.10;99.90
25058;DHT22;13057;50.978;11.034;2022-10-31T05:02:52;12.10;99.90
25058;DHT22;13057;50.978;11.034;2022-10-31T05:05:20;12.00;99.90
25058;DHT22;13057;50.978;11.034;2022-10-31T05:07:47;12.00;99.90
25058;DHT22;13057;50.978;11.034;2022-10-31T05:10:16;12.00;99.90
25058;DHT22;13057;50.978;11.034;2022-10-31T05:12:48;11.90;99.90
25058;DHT22;13057;50.978;11.034;2022-10-31T05:15:14;11.90;99.90
25058;DHT22;13057;50.978;11.034;2022-10-31T05:17:40;11.90;99.90
25058;DHT22;13057;50.978;11.034;2022-10-31T05:20:06;11.90;99.90
25058;DHT22;13057;50.978;11.034;2022-10-31T05:22:32;11.90;99.90
25058;DHT22;13057;50.978;11.034;2022-10-31T05:24:58;12.00;99.90
25058;DHT22;13057;50.978;11.034;2022-10-31T05:27:24;12.00;99.90
25058;DHT22;13057;50.978;11.034;2022-10-31T05:29:49;11.90;99.90
25058;DHT22;13057;50.978;11.034;2022-10-31T05:32:16;11.90;99.90
25058;DHT22;13057;50.978;11.034;2022-10-31T05:34:41;11.90;99.90
25058;DHT22;13057;50.978;11.034;2022-10-31T05:37:07;11.90;99.90
25058;DHT22;13057;50.978;11.034;2022-10-31T05:39:33;11.90;99.90
25058;DHT22;13057;50.978;11.034;2022-10-31T05:41:59;12.00;99.90
25058;DHT22;13057;50.978;11.034;2022-10-31T05:44:24;12.00;99.90
25058;DHT22;13057;50.978;11.034;2022-10-31T05:46:50;11.90;99.90
25058;DHT22;13057;50.978;11.034;2022-10-31T05:49:16;11.80;99.90
25058;DHT22;13057;50.978;11.034;2022-10-31T05:51:42;11.80;99.90
25058;DHT22;13057;50.978;11.034;2022-10-31T05:54:08;11.80;99.90
25058;DHT22;13057;50.978;11.034;2022-10-31T05:56:34;11.80;99.90
25058;DHT22;13057;50.978;11.034;2022-10-31T05:59:00;11.80;99.90
25058;DHT22;13057;50.978;11.034;2022-10-31T06:01:26;11.80;99.90
25058;DHT22;13057;50.978;11.034;2022-10-31T06:03:51;11.80;99.90
25058;DHT22;13057;50.978;11.034;2022-10-31T06:06:17;11.80;99.90
25058;DHT22;13057;50.978;11.034;2022-10-31T06:08:43;11.80;99.90
25058;DHT22;13057;50.978;11.034;2022-10-31T06:11:09;11.80;99.90
25058;DHT22;13057;50.978;11.034;2022-10-31T06:13:35;11.70;99.90
25058;DHT22;13057;50.978;11.034;2022-10-31T06:16:01;11.70;99.90
25058;DHT22;13057;50.978;11.034;2022-10-31T06:18:26;11.70;99.90
25058;DHT22;13057;50.978;11.034;2022-10-31T06:20:52;11.80;99.90
25058;DHT22;13057;50.978;11.034;2022-10-31T06:23:18;11.80;99.90
25058;DHT22;13057;50.978;11.034;2022-10-31T06:25:49;11.80;99.90
25058;DHT22;13057;50.978;11.034;2022-10-31T06:28:15;11.80;99.90
25058;DHT22;13057;50.978;11.034;2022-10-31T06:30:40;11.80;99.90
25058;DHT22;13057;50.978;11.034;2022-10-31T06:33:06;11.80;99.90
25058;DHT22;13057;50.978;11.034;2022-10-31T06:35:32;11.80;99.90
25058;DHT22;13057;50.978;11.034;2022-10-31T06:37:58;11.80;99.90
25058;DHT22;13057;50.978;11.034;2022-10-31T06:40:24;11.80;99.90
25058;DHT22;13057;50.978;11.034;2022-10-31T06:42:59;11.80;99.90
25058;DHT22;13057;50.978;11.034;2022-10-31T06:45:25;11.90;99.90
25058;DHT22;13057;50.978;11.034;2022-10-31T06:47:53;11.90;99.90
25058;DHT22;13057;50.978;11.034;2022-10-31T06:50:20;11.90;99.90
25058;DHT22;13057;50.978;11.034;2022-10-31T06:52:52;11.90;99.90
25058;DHT22;13057;50.978;11.034;2022-10-31T06:55:18;11.90;99.90
25058;DHT22;13057;50.978;11.034;2022-10-31T06:57:50;11.90;99.90
25058;DHT22;13057;50.978;11.034;2022-10-31T07:00:16;11.90;99.90
25058;DHT22;13057;50.978;11.034;2022-10-31T07:02:41;12.00;99.90
25058;DHT22;13057;50.978;11.034;2022-10-31T07:05:07;11.90;99.90
25058;DHT22;13057;50.978;11.034;2022-10-31T07:07:33;12.00;99.90
25058;DHT22;13057;50.978;11.034;2022-10-31T07:09:59;12.00;99.90
25058;DHT22;13057;50.978;11.034;2022-10-31T07:12:25;12.00;99.90
25058;DHT22;13057;50.978;11.034;2022-10-31T07:14:51;12.00;99.90
25058;DHT22;13057;50.978;11.034;2022-10-31T07:17:16;12.00;99.90
25058;DHT22;13057;50.978;11.034;2022-10-31T07:19:42;12.10;99.90
25058;DHT22;13057;50.978;11.034;2022-10-31T07:22:08;12.10;99.90
25058;DHT22;13057;50.978;11.034;2022-10-31T07:24:34;12.10;99.90
25058;DHT22;13057;50.978;11.034;2022-10-31T07:27:00;12.10;99.90
25058;DHT22;13057;50.978;11.034;2022-10-31T07:29:26;12.10;99.90
25058;DHT22;13057;50.978;11.034;2022-10-31T07:31:51;12.20;99.90
25058;DHT22;13057;50.978;11.034;2022-10-31T07:34:17;12.20;99.90
25058;DHT22;13057;50.978;11.034;2022-10-31T07:36:43;12.20;99.90
25058;DHT22;13057;50.978;11.034;2022-10-31T07:39:08;12.20;99.90
25058;DHT22;13057;50.978;11.034;2022-10-31T07:41:34;12.30;99.90
25058;DHT22;13057;50.978;11.034;2022-10-31T07:44:00;12.30;99.90
25058;DHT22;13057;50.978;11.034;2022-10-31T07:46:26;12.30;99.90
25058;DHT22;13057;50.978;11.034;2022-10-31T07:48:52;12.30;99.90
25058;DHT22;13057;50.978;11.034;2022-10-31T07:51:18;12.40;99.90
25058;DHT22;13057;50.978;11.034;2022-10-31T07:53:43;12.40;99.90
25058;DHT22;13057;50.978;11.034;2022-10-31T07:56:09;12.40;99.90
25058;DHT22;13057;50.978;11.034;2022-10-31T07:58:35;12.40;99.90
25058;DHT22;13057;50.978;11.034;2022-10-31T08:01:02;12.50;99.90
25058;DHT22;13057;50.978;11.034;2022-10-31T08:03:28;12.50;99.90
25058;DHT22;13057;50.978;11.034;2022-10-31T08:05:53;12.60;99.90
25058;DHT22;13057;50.978;11.034;2022-10-31T08:08:19;12.70;99.90
25058;DHT22;13057;50.978;11.034;2022-10-31T08:10:45;12.70;99.90
25058;DHT22;13057;50.978;11.034;2022-10-31T08:13:13;12.80;99.90
25058;DHT22;13057;50.978;11.034;2022-10-31T08:15:39;12.90;99.90
25058;DHT22;13057;50.978;11.034;2022-10-31T08:18:12;12.90;99.90
25058;DHT22;13057;50.978;11.034;2022-10-31T08:20:39;12.90;99.90
25058;DHT22;13057;50.978;11.034;2022-10-31T08:23:05;13.00;99.90
25058;DHT22;13057;50.978;11.034;2022-10-31T08:25:33;13.00;99.90
25058;DHT22;13057;50.978;11.034;2022-10-31T08:27:59;13.00;99.90
25058;DHT22;13057;50.978;11.034;2022-10-31T08:30:27;13.10;99.90
25058;DHT22;13057;50.978;11.034;2022-10-31T08:33:06;13.20;99.90
25058;DHT22;13057;50.978;11.034;2022-10-31T08:35:32;13.20;99.90
25058;DHT22;13057;50.978;11.034;2022-10-31T08:37:59;13.30;99.90
25058;DHT22;13057;50.978;11.034;2022-10-31T08:40:27;13.30;99.90
25058;DHT22;13057;50.978;11.034;2022-10-31T08:43:00;13.40;99.90
25058;DHT22;13057;50.978;11.034;2022-10-31T08:45:26;13.40;99.90
25058;DHT22;13057;50.978;11.034;2022-10-31T08:47:57;13.40;99.90
25058;DHT22;13057;50.978;11.034;2022-10-31T08:50:23;13.50;99.90
25058;DHT22;13057;50.978;11.034;2022-10-31T08:52:49;13.60;99.90
25058;DHT22;13057;50.978;11.034;2022-10-31T08:55:15;13.80;99.90
25058;DHT22;13057;50.978;11.034;2022-10-31T08:57:41;14.10;99.90
25058;DHT22;13057;50.978;11.034;2022-10-31T09:00:07;14.50;99.90
25058;DHT22;13057;50.978;11.034;2022-10-31T09:02:34;14.80;99.90
25058;DHT22;13057;50.978;11.034;2022-10-31T09:04:59;15.00;99.90
25058;DHT22;13057;50.978;11.034;2022-10-31T09:07:25;15.20;99.90
25058;DHT22;13057;50.978;11.034;2022-10-31T09:09:51;15.30;99.90
25058;DHT22;13057;50.978;11.034;2022-10-31T09:12:17;15.40;99.90
25058;DHT22;13057;50.978;11.034;2022-10-31T09:14:43;15.50;99.90
25058;DHT22;13057;50.978;11.034;2022-10-31T09:17:09;15.60;99.90
25058;DHT22;13057;50.978;11.034;2022-10-31T09:19:34;15.60;99.90
25058;DHT22;13057;50.978;11.034;2022-10-31T09:22:11;15.70;99.90
25058;DHT22;13057;50.978;11.034;2022-10-31T09:24:36;15.70;99.90
25058;DHT22;13057;50.978;11.034;2022-10-31T09:27:05;15.70;99.90
25058;DHT22;13057;50.978;11.034;2022-10-31T09:29:34;15.70;99.90
25058;DHT22;13057;50.978;11.034;2022-10-31T09:32:00;15.70;99.90
25058;DHT22;13057;50.978;11.034;2022-10-31T09:34:26;15.70;99.90
25058;DHT22;13057;50.978;11.034;2022-10-31T09:36:53;15.80;99.90
25058;DHT22;13057;50.978;11.034;2022-10-31T09:39:19;15.90;99.90
25058;DHT22;13057;50.978;11.034;2022-10-31T09:42:15;16.00;99.90
25058;DHT22;13057;50.978;11.034;2022-10-31T09:44:56;16.10;99.90
25058;DHT22;13057;50.978;11.034;2022-10-31T09:47:40;16.20;99.90
25058;DHT22;13057;50.978;11.034;2022-10-31T09:50:18;16.30;99.90
25058;DHT22;13057;50.978;11.034;2022-10-31T09:53:02;16.30;99.90
25058;DHT22;13057;50.978;11.034;2022-10-31T09:55:39;16.40;99.90
25058;DHT22;13057;50.978;11.034;2022-10-31T09:58:07;16.50;99.90
25058;DHT22;13057;50.978;11.034;2022-10-31T10:00:35;16.60;99.90
25058;DHT22;13057;50.978;11.034;2022-10-31T10:03:15;16.60;99.90
25058;DHT22;13057;50.978;11.034;2022-10-31T10:05:51;16.60;99.90
25058;DHT22;13057;50.978;11.034;2022-10-31T10:08:23;16.50;99.90
25058;DHT22;13057;50.978;11.034;2022-10-31T10:11:07;16.50;99.90
25058;DHT22;13057;50.978;11.034;2022-10-31T10:14:07;16.50;99.90
25058;DHT22;13057;50.978;11.034;2022-10-31T10:16:48;16.60;99.90
25058;DHT22;13057;50.978;11.034;2022-10-31T10:19:40;16.80;99.90
25058;DHT22;13057;50.978;11.034;2022-10-31T10:22:24;16.90;99.90
25058;DHT22;13057;50.978;11.034;2022-10-31T10:25:14;16.90;99.90
25058;DHT22;13057;50.978;11.034;2022-10-31T10:30:39;16.80;99.90
25058;DHT22;13057;50.978;11.034;2022-10-31T10:33:12;16.80;99.90
25058;DHT22;13057;50.978;11.034;2022-10-31T10:35:44;16.80;99.90
25058;DHT22;13057;50.978;11.034;2022-10-31T10:38:20;16.80;99.90
25058;DHT22;13057;50.978;11.034;2022-10-31T10:40:48;16.90;99.90
25058;DHT22;13057;50.978;11.034;2022-10-31T10:43:29;17.00;99.90
25058;DHT22;13057;50.978;11.034;2022-10-31T10:46:17;17.00;99.90
25058;DHT22;13057;50.978;11.034;2022-10-31T10:49:17;17.00;99.90
25058;DHT22;13057;50.978;11.034;2022-10-31T10:54:56;17.10;99.90
25058;DHT22;13057;50.978;11.034;2022-10-31T10:57:32;17.20;99.90
25058;DHT22;13057;50.978;11.034;2022-10-31T11:00:18;17.20;99.90
25058;DHT22;13057;50.978;11.034;2022-10-31T11:02:47;17.30;99.90
25058;DHT22;13057;50.978;11.034;2022-10-31T11:05:22;17.30;99.90
25058;DHT22;13057;50.978;11.034;2022-10-31T11:07:48;17.30;99.90
25058;DHT22;13057;50.978;11.034;2022-10-31T11:10:21;17.30;99.90
25058;DHT22;13057;50.978;11.034;2022-10-31T11:13:19;17.20;99.90
25058;DHT22;13057;50.978;11.034;2022-10-31T11:16:07;17.30;99.90
25058;DHT22;13057;50.978;11.034;2022-10-31T11:18:37;17.30;99.90
25058;DHT22;13057;50.978;11.034;2022-10-31T11:21:04;17.20;99.90
25058;DHT22;13057;50.978;11.034;2022-10-31T11:23:31;17.30;99.90
25058;DHT22;13057;50.978;11.034;2022-10-31T11:26:01;17.30;99.90
25058;DHT22;13057;50.978;11.034;2022-10-31T11:28:28;17.30;99.90
25058;DHT22;13057;50.978;11.034;2022-10-31T11:30:57;17.40;99.90
25058;DHT22;13057;50.978;11.034;2022-10-31T11:33:29;17.40;99.90
25058;DHT22;13057;50.978;11.034;2022-10-31T11:35:56;17.40;99.90
25058;DHT22;13057;50.978;11.034;2022-10-31T11:38:28;17.40;99.90
25058;DHT22;13057;50.978;11.034;2022-10-31T11:40:58;17.50;99.90
25058;DHT22;13057;50.978;11.034;2022-10-31T11:43:25;17.50;99.90
25058;DHT22;13057;50.978;11.034;2022-10-31T11:45:51;17.50;99.90
25058;DHT22;13057;50.978;11.034;2022-10-31T11:48:21;17.50;99.90
25058;DHT22;13057;50.978;11.034;2022-10-31T11:50:52;17.50;99.90
25058;DHT22;13057;50.978;11.034;2022-10-31T11:53:27;17.60;99.90
25058;DHT22;13057;50.978;11.034;2022-10-31T11:56:09;17.60;99.90
25058;DHT22;13057;50.978;11.034;2022-10-31T11:58:35;17.60;99.90
25058;DHT22;13057;50.978;11.034;2022-10-31T12:01:01;17.60;99.90
25058;DHT22;13057;50.978;11.034;2022-10-31T12:03:46;17.60;99.90
25058;DHT22;13057;50.978;11.034;2022-10-31T12:06:21;17.70;99.90
25058;DHT22;13057;50.978;11.034;2022-10-31T12:08:48;17.70;99.90
25058;DHT22;13057;50.978;11.034;2022-10-31T12:11:35;17.70;99.90
25058;DHT22;13057;50.978;11.034;2022-10-31T12:14:25;17.70;99.90
25058;DHT22;13057;50.978;11.034;2022-10-31T12:17:14;17.70;99.90
25058;DHT22;13057;50.978;11.034;2022-10-31T12:19:58;17.80;99.90
25058;DHT22;13057;50.978;11.034;2022-10-31T12:22:50;17.80;99.90
25058;DHT22;13057;50.978;11.034;2022-10-31T12:25:32;17.80;99.90
25058;DHT22;13057;50.978;11.034;2022-10-31T12:28:22;17.80;99.90
25058;DHT22;13057;50.978;11.034;2022-10-31T12:31:10;17.90;99.90
25058;DHT22;13057;50.978;11.034;2022-10-31T12:33:52;17.90;99.90
25058;DHT22;13057;50.978;11.034;2022-10-31T12:36:34;17.90;99.90
25058;DHT22;13057;50.978;11.034;2022-10-31T12:39:30;18.00;99.90
25058;DHT22;13057;50.978;11.034;2022-10-31T12:42:10;18.00;99.90
25058;DHT22;13057;50.978;11.034;2022-10-31T12:44:52;18.00;99.90
25058;DHT22;13057;50.978;11.034;2022-10-31T12:50:27;18.00;99.90
25058;DHT22;13057;50.978;11.034;2022-10-31T12:53:16;18.00;99.90
25058;DHT22;13057;50.978;11.034;2022-10-31T12:55:59;18.00;99.90
25058;DHT22;13057;50.978;11.034;2022-10-31T12:58:38;18.00;99.90
25058;DHT22;13057;50.978;11.034;2022-10-31T13:01:12;18.00;99.90
25058;DHT22;13057;50.978;11.034;2022-10-31T13:03:50;18.10;99.90
25058;DHT22;13057;50.978;11.034;2022-10-31T13:06:22;18.10;99.90
25058;DHT22;13057;50.978;11.034;2022-10-31T13:08:52;18.10;99.90
25058;DHT22;13057;50.978;11.034;2022-10-31T13:11:25;18.10;99.90
25058;DHT22;13057;50.978;11.034;2022-10-31T13:14:02;18.10;99.90
25058;DHT22;13057;50.978;11.034;2022-10-31T13:16:36;18.10;99.90
25058;DHT22;13057;50.978;11.034;2022-10-31T13:19:21;18.10;99.90
25058;DHT22;13057;50.978;11.034;2022-10-31T13:22:06;18.10;99.90
25058;DHT22;13057;50.978;11.034;2022-10-31T13:24:37;18.10;99.90
25058;DHT22;13057;50.978;11.034;2022-10-31T13:27:22;18.00;99.90
25058;DHT22;13057;50.978;11.034;2022-10-31T13:30:03;18.10;99.90
25058;DHT22;13057;50.978;11.034;2022-10-31T13:32:41;18.10;99.90
25058;DHT22;13057;50.978;11.034;2022-10-31T13:35:16;18.10;99.90
25058;DHT22;13057;50.978;11.034;2022-10-31T13:37:49;18.10;99.90
25058;DHT22;13057;50.978;11.034;2022-10-31T13:40:34;18.10;99.90
25058;DHT22;13057;50.978;11.034;2022-10-31T13:43:12;18.10;99.90
25058;DHT22;13057;50.978;11.034;2022-10-31T13:45:51;18.10;99.90
25058;DHT22;13057;50.978;11.034;2022-10-31T13:48:29;18.10;99.90
25058;DHT22;13057;50.978;11.034;2022-10-31T13:51:04;18.10;99.90
25058;DHT22;13057;50.978;11.034;2022-10-31T13:53:37;18.10;99.90
25058;DHT22;13057;50.978;11.034;2022-10-31T13:56:18;18.10;99.90
25058;DHT22;13057;50.978;11.034;2022-10-31T14:01:23;18.10;99.90
25058;DHT22;13057;50.978;11.034;2022-10-31T14:04:02;18.10;99.90
25058;DHT22;13057;50.978;11.034;2022-10-31T14:06:44;18.10;99.90
25058;DHT22;13057;50.978;11.034;2022-10-31T14:09:20;18.10;99.90
25058;DHT22;13057;50.978;11.034;2022-10-31T14:11:48;18.00;99.90
25058;DHT22;13057;50.978;11.034;2022-10-31T14:14:15;18.00;99.90
25058;DHT22;13057;50.978;11.034;2022-10-31T14:16:43;18.10;99.90
25058;DHT22;13057;50.978;11.034;2022-10-31T14:19:17;18.00;99.90
25058;DHT22;13057;50.978;11.034;2022-10-31T14:21:45;18.00;99.90
25058;DHT22;13057;50.978;11.034;2022-10-31T14:24:31;18.00;99.90
25058;DHT22;13057;50.978;11.034;2022-10-31T14:27:01;18.00;99.90
25058;DHT22;13057;50.978;11.034;2022-10-31T14:29:31;18.00;99.90
25058;DHT22;13057;50.978;11.034;2022-10-31T14:32:06;17.90;99.90
25058;DHT22;13057;50.978;11.034;2022-10-31T14:34:43;17.90;99.90
25058;DHT22;13057;50.978;11.034;2022-10-31T14:37:40;17.90;99.90
25058;DHT22;13057;50.978;11.034;2022-10-31T14:40:27;17.90;99.90
25058;DHT22;13057;50.978;11.034;2022-10-31T14:43:25;17.90;99.90
25058;DHT22;13057;50.978;11.034;2022-10-31T14:48:53;17.80;99.90
25058;DHT22;13057;50.978;11.034;2022-10-31T14:51:27;17.80;99.90
25058;DHT22;13057;50.978;11.034;2022-10-31T14:53:56;17.80;99.90
25058;DHT22;13057;50.978;11.034;2022-10-31T14:56:25;17.80;99.90
25058;DHT22;13057;50.978;11.034;2022-10-31T14:58:53;17.80;99.90
25058;DHT22;13057;50.978;11.034;2022-10-31T15:01:33;17.80;99.90
25058;DHT22;13057;50.978;11.034;2022-10-31T15:04:05;17.70;99.90
25058;DHT22;13057;50.978;11.034;2022-10-31T15:06:52;17.70;99.90
25058;DHT22;13057;50.978;11.034;2022-10-31T15:09:26;17.60;99.90
25058;DHT22;13057;50.978;11.034;2022-10-31T15:11:52;17.60;99.90
25058;DHT22;13057;50.978;11.034;2022-10-31T15:14:23;17.60;99.90
25058;DHT22;13057;50.978;11.034;2022-10-31T15:16:51;17.60;99.90
25058;DHT22;13057;50.978;11.034;2022-10-31T15:19:22;17.60;99.90
25058;DHT22;13057;50.978;11.034;2022-10-31T15:21:50;17.50;99.90
25058;DHT22;13057;50.978;11.034;2022-10-31T15:24:17;17.50;99.90
25058;DHT22;13057;50.978;11.034;2022-10-31T15:26:49;17.40;99.90
25058;DHT22;13057;50.978;11.034;2022-10-31T15:29:19;17.40;99.90
25058;DHT22;13057;50.978;11.034;2022-10-31T15:31:53;17.40;99.90
25058;DHT22;13057;50.978;11.034;2022-10-31T15:36:48;17.40;99.90
25058;DHT22;13057;50.978;11.034;2022-10-31T15:39:16;17.30;99.90
25058;DHT22;13057;50.978;11.034;2022-10-31T15:41:51;17.30;99.90
25058;DHT22;13057;50.978;11.034;2022-10-31T15:44:24;17.30;99.90
25058;DHT22;13057;50.978;11.034;2022-10-31T15:47:01;17.30;99.90
25058;DHT22;13057;50.978;11.034;2022-10-31T15:49:31;17.30;99.90
25058;DHT22;13057;50.978;11.034;2022-10-31T15:52:06;17.30;99.90
25058;DHT22;13057;50.978;11.034;2022-10-31T15:54:34;17.20;99.90
25058;DHT22;13057;50.978;11.034;2022-10-31T15:57:01;17.20;99.90
25058;DHT22;13057;50.978;11.034;2022-10-31T15:59:28;17.20;99.90